createdAt,value
2018-11-23T00:00:35.778Z,22.03
2018-11-23T00:03:05.602Z,21.20
2018-11-23T00:05:35.271Z,22.27
2018-11-23T00:08:05.115Z,21.80
2018-11-23T00:10:34.817Z,23.37
2018-11-23T00:13:04.632Z,22.83
2018-11-23T00:15:40.623Z,21.43
2018-11-23T00:18:10.402Z,21.87
2018-11-23T00:20:40.051Z,21.53
2018-11-23T00:23:09.643Z,21.93
2018-11-23T00:25:39.286Z,22.50
2018-11-23T00:28:08.950Z,20.60
2018-11-23T00:30:38.587Z,22.03
2018-11-23T00:33:08.294Z,23.63
2018-11-23T00:35:38.359Z,21.57
2018-11-23T00:38:08.066Z,22.13
2018-11-23T00:40:38.071Z,22.23
2018-11-23T00:43:07.699Z,22.13
2018-11-23T00:45:42.774Z,22.07
2018-11-23T00:48:07.046Z,22.67
2018-11-23T00:50:36.928Z,23.00
2018-11-23T00:53:06.581Z,24.37
2018-11-23T00:55:36.231Z,23.73
2018-11-23T00:58:05.839Z,23.07
2018-11-23T01:00:35.540Z,23.93
2018-11-23T01:03:05.808Z,22.93
2018-11-23T01:05:35.404Z,24.23
2018-11-23T01:08:05.475Z,23.77
2018-11-23T01:10:35.062Z,22.37
2018-11-23T01:13:05.050Z,22.70
2018-11-23T01:15:34.688Z,24.10
2018-11-23T01:18:04.427Z,24.90
2018-11-23T01:20:34.099Z,23.23
2018-11-23T01:25:40.646Z,24.63
2018-11-23T01:28:10.275Z,25.60
2018-11-23T01:30:40.247Z,23.87
2018-11-23T01:33:09.988Z,24.50
2018-11-23T01:35:39.755Z,23.60
2018-11-23T01:38:09.456Z,24.23
2018-11-23T01:40:39.063Z,22.50
2018-11-23T01:43:09.452Z,23.47
2018-11-23T01:45:39.293Z,23.17
2018-11-23T01:48:08.928Z,23.33
2018-11-23T01:50:38.747Z,23.77
2018-11-23T01:53:08.414Z,22.87
2018-11-23T01:55:38.228Z,22.67
2018-11-23T01:58:08.010Z,21.70
2018-11-23T02:00:37.731Z,24.03
2018-11-23T02:03:07.342Z,22.37
2018-11-23T02:05:36.962Z,22.80
2018-11-23T02:08:06.971Z,22.63
2018-11-23T02:10:36.587Z,22.83
2018-11-23T02:13:06.247Z,23.30
2018-11-23T02:15:35.942Z,21.70
2018-11-23T02:18:05.523Z,22.93
2018-11-23T02:20:35.111Z,25.23
2018-11-23T02:23:04.833Z,25.50
2018-11-23T02:25:34.465Z,25.20
2018-11-23T02:28:04.118Z,25.90
2018-11-23T02:30:33.848Z,27.70
2018-11-23T02:33:03.555Z,27.10
2018-11-23T02:35:33.270Z,26.97
2018-11-23T02:38:02.874Z,24.87
2018-11-23T02:40:32.491Z,26.30
2018-11-23T02:43:02.074Z,26.77
2018-11-23T02:45:31.787Z,26.13
2018-11-23T02:48:01.507Z,26.50
2018-11-23T02:50:31.119Z,24.03
2018-11-23T02:53:00.702Z,26.03
2018-11-23T02:55:30.370Z,26.47
2018-11-23T02:58:00.328Z,24.53
2018-11-23T03:00:29.968Z,27.60
2018-11-23T03:02:59.594Z,24.60
2018-11-23T03:05:29.295Z,23.87
2018-11-23T03:07:58.877Z,26.87
2018-11-23T03:10:28.515Z,25.90
2018-11-23T03:12:58.261Z,27.33
2018-11-23T03:15:27.894Z,27.10
2018-11-23T03:17:57.497Z,28.10
2018-11-23T03:20:27.183Z,29.63
2018-11-23T03:22:56.852Z,28.93
2018-11-23T03:25:26.455Z,29.27
2018-11-23T03:27:56.178Z,25.43
2018-11-23T03:30:25.738Z,26.67
2018-11-23T03:32:55.374Z,28.80
2018-11-23T03:35:24.947Z,28.60
2018-11-23T03:37:54.604Z,31.23
2018-11-23T03:40:24.205Z,30.57
2018-11-23T03:42:53.863Z,31.03
2018-11-23T03:45:23.477Z,32.90
2018-11-23T03:47:53.167Z,30.60
2018-11-23T03:50:22.871Z,29.90
2018-11-23T03:52:52.603Z,32.93
2018-11-23T03:55:22.275Z,33.63
2018-11-23T03:57:51.930Z,33.07
2018-11-23T04:00:22.775Z,31.80
2018-11-23T04:02:52.702Z,33.53
2018-11-23T04:05:22.393Z,32.30
2018-11-23T04:07:52.053Z,31.83
2018-11-23T04:10:21.651Z,31.40
2018-11-23T04:12:51.559Z,32.10
2018-11-23T04:15:21.180Z,31.03
2018-11-23T04:17:50.824Z,31.37
2018-11-23T04:20:20.572Z,31.77
2018-11-23T04:22:50.199Z,30.07
2018-11-23T04:25:19.808Z,34.13
2018-11-23T04:27:49.427Z,33.07
2018-11-23T04:30:19.120Z,34.03
2018-11-23T04:32:48.931Z,34.10
2018-11-23T04:35:19.418Z,37.87
2018-11-23T04:37:49.413Z,36.30
2018-11-23T04:40:19.611Z,39.03
2018-11-23T04:42:49.206Z,39.67
2018-11-23T04:45:18.826Z,36.17
2018-11-23T04:47:48.403Z,38.10
2018-11-23T04:50:18.036Z,34.07
2018-11-23T04:52:47.629Z,32.23
2018-11-23T04:55:17.271Z,34.27
2018-11-23T04:57:47.275Z,37.23
2018-11-23T05:00:17.600Z,35.93
2018-11-23T05:02:47.702Z,40.27
2018-11-23T05:05:17.368Z,42.07
2018-11-23T05:07:47.730Z,39.43
2018-11-23T05:10:18.128Z,41.13
2018-11-23T05:12:47.763Z,36.00
2018-11-23T05:15:18.212Z,37.33
2018-11-23T05:17:48.052Z,36.37
2018-11-23T05:20:17.968Z,36.57
2018-11-23T05:22:47.552Z,34.53
2018-11-23T05:25:18.154Z,40.23
2018-11-23T05:27:47.804Z,36.77
2018-11-23T05:30:19.798Z,39.87
2018-11-23T05:32:49.469Z,36.87
2018-11-23T05:35:19.379Z,39.53
2018-11-23T05:37:49.096Z,40.07
2018-11-23T05:40:20.071Z,39.87
2018-11-23T05:42:49.905Z,37.80
2018-11-23T05:45:21.072Z,38.03
2018-11-23T05:47:51.121Z,36.80
2018-11-23T05:50:22.509Z,37.67
2018-11-23T05:52:52.357Z,36.73
2018-11-23T05:55:22.060Z,39.47
2018-11-23T05:57:52.113Z,39.43
2018-11-23T06:00:24.303Z,42.63
2018-11-23T06:02:54.067Z,40.10
2018-11-23T06:05:23.784Z,37.30
2018-11-23T06:07:53.495Z,37.00
2018-11-23T06:10:29.663Z,40.13
2018-11-23T06:12:59.482Z,34.77
2018-11-23T06:15:29.209Z,35.83
2018-11-23T06:17:58.783Z,31.13
2018-11-23T06:20:28.469Z,36.57
2018-11-23T06:22:58.126Z,37.87
2018-11-23T06:25:35.536Z,37.43
2018-11-23T06:28:05.796Z,38.47
2018-11-23T06:30:35.549Z,33.87
2018-11-23T06:33:16.381Z,40.57
2018-11-23T06:35:52.548Z,41.97
2018-11-23T06:38:23.192Z,38.87
2018-11-23T06:40:53.089Z,37.97
2018-11-23T06:43:22.836Z,37.07
2018-11-23T06:45:52.455Z,38.60
2018-11-23T06:48:22.200Z,36.60
2018-11-23T06:50:51.939Z,37.23
2018-11-23T06:53:21.703Z,38.53
2018-11-23T06:55:51.508Z,37.97
2018-11-23T06:58:22.320Z,39.80
2018-11-23T07:00:52.071Z,39.40
2018-11-23T07:03:21.867Z,36.13
2018-11-23T07:05:51.544Z,34.47
2018-11-23T07:08:21.828Z,37.20
2018-11-23T07:10:52.379Z,38.27
2018-11-23T07:13:21.996Z,38.97
2018-11-23T07:15:51.668Z,40.00
2018-11-23T07:18:21.310Z,37.63
2018-11-23T07:20:51.013Z,32.33
2018-11-23T07:23:20.621Z,35.43
2018-11-23T07:25:50.324Z,40.77
2018-11-23T07:28:20.075Z,39.23
2018-11-23T07:30:49.718Z,38.90
2018-11-23T07:33:19.550Z,38.33
2018-11-23T07:35:49.243Z,38.70
2018-11-23T07:38:18.994Z,39.03
2018-11-23T07:41:00.089Z,37.93
2018-11-23T07:43:29.743Z,36.60
2018-11-23T07:45:59.404Z,35.93
2018-11-23T07:48:29.211Z,32.53
2018-11-23T07:50:58.858Z,33.93
2018-11-23T07:53:28.459Z,40.07
2018-11-23T07:55:58.129Z,38.87
2018-11-23T07:58:27.727Z,37.53
2018-11-23T08:00:57.459Z,39.50
2018-11-23T08:03:27.093Z,38.37
2018-11-23T08:05:56.764Z,37.47
2018-11-23T08:08:26.405Z,37.23
2018-11-23T08:10:55.420Z,35.27
2018-11-23T08:13:25.291Z,37.57
2018-11-23T08:15:55.010Z,38.47
2018-11-23T08:18:24.666Z,36.93
2018-11-23T08:20:54.370Z,36.00
2018-11-23T08:23:24.036Z,38.97
2018-11-23T08:25:53.688Z,38.97
2018-11-23T08:28:23.415Z,36.33
2018-11-23T08:30:53.147Z,37.43
2018-11-23T08:33:22.919Z,38.23
2018-11-23T08:35:52.737Z,36.97
2018-11-23T08:38:22.372Z,35.07
2018-11-23T08:40:52.004Z,38.13
2018-11-23T08:43:21.697Z,37.53
2018-11-23T08:45:51.552Z,35.87
2018-11-23T08:48:21.320Z,39.17
2018-11-23T08:50:50.996Z,36.00
2018-11-23T08:53:27.922Z,37.20
2018-11-23T08:55:54.812Z,37.03
2018-11-23T08:58:24.559Z,35.17
2018-11-23T09:00:54.442Z,35.83
2018-11-23T09:03:24.243Z,36.47
2018-11-23T09:05:53.963Z,36.90
2018-11-23T09:08:23.577Z,35.13
2018-11-23T09:10:53.448Z,42.17
2018-11-23T09:13:23.386Z,36.67
2018-11-23T09:15:52.829Z,35.33
2018-11-23T09:18:22.580Z,35.17
2018-11-23T09:20:52.332Z,36.00
2018-11-23T09:23:22.043Z,34.23
2018-11-23T09:25:51.735Z,35.27
2018-11-23T09:28:21.564Z,35.77
2018-11-23T09:30:51.234Z,34.93
2018-11-23T09:33:20.828Z,40.23
2018-11-23T09:35:50.511Z,36.67
2018-11-23T09:38:20.287Z,36.87
2018-11-23T09:40:49.968Z,35.43
2018-11-23T09:43:19.650Z,32.40
2018-11-23T09:45:49.268Z,36.43
2018-11-23T09:48:18.853Z,35.83
2018-11-23T09:50:48.670Z,35.67
2018-11-23T09:53:18.327Z,32.90
2018-11-23T09:55:48.127Z,34.93
2018-11-23T09:58:17.730Z,33.60
2018-11-23T10:00:47.488Z,33.43
2018-11-23T10:03:17.288Z,29.60
2018-11-23T10:05:46.976Z,36.57
2018-11-23T10:08:16.643Z,32.20
2018-11-23T10:10:46.517Z,34.17
2018-11-23T10:13:16.403Z,34.00
2018-11-23T10:15:46.148Z,31.57
2018-11-23T10:18:15.745Z,34.70
2018-11-23T10:20:45.358Z,32.10
2018-11-23T10:23:15.230Z,34.37
2018-11-23T10:25:44.889Z,33.03
2018-11-23T10:28:14.504Z,31.00
2018-11-23T10:30:44.187Z,31.63
2018-11-23T10:33:13.878Z,31.80
2018-11-23T10:35:43.490Z,31.67
2018-11-23T10:38:13.195Z,31.83
2018-11-23T10:40:42.938Z,33.33
2018-11-23T10:43:12.678Z,34.03
2018-11-23T10:45:42.776Z,33.90
2018-11-23T10:48:12.480Z,33.33
2018-11-23T10:50:42.943Z,30.83
2018-11-23T10:53:14.203Z,32.73
2018-11-23T10:55:44.015Z,32.27
2018-11-23T10:58:13.840Z,29.23
2018-11-23T11:00:49.508Z,31.17
2018-11-23T11:03:33.438Z,31.00
2018-11-23T11:06:12.465Z,33.37
2018-11-23T11:08:42.908Z,32.13
2018-11-23T11:11:13.867Z,32.37
2018-11-23T11:13:42.677Z,33.00
2018-11-23T11:16:12.366Z,31.87
2018-11-23T11:18:42.127Z,30.93
2018-11-23T11:21:11.742Z,32.43
2018-11-23T11:23:41.595Z,31.57
2018-11-23T11:26:11.295Z,29.57
2018-11-23T11:28:40.962Z,30.17
2018-11-23T11:31:10.747Z,32.70
2018-11-23T11:33:40.419Z,29.27
2018-11-23T11:36:10.082Z,30.73
2018-11-23T11:38:39.967Z,30.27
2018-11-23T11:41:09.623Z,30.40
2018-11-23T11:43:39.695Z,30.47
2018-11-23T11:46:09.983Z,29.50
2018-11-23T11:48:39.874Z,31.43
2018-11-23T11:51:09.979Z,32.07
2018-11-23T11:53:39.647Z,31.73
2018-11-23T11:56:09.417Z,31.57
2018-11-23T11:58:39.309Z,32.33
2018-11-23T12:01:08.947Z,29.97
2018-11-23T12:03:38.565Z,29.73
2018-11-23T12:06:08.216Z,32.93
2018-11-23T12:08:37.824Z,31.80
2018-11-23T12:11:07.627Z,32.63
2018-11-23T12:13:37.333Z,32.77
2018-11-23T12:16:07.092Z,33.63
2018-11-23T12:18:36.732Z,30.40
2018-11-23T12:21:06.588Z,34.10
2018-11-23T12:23:36.326Z,34.27
2018-11-23T12:26:06.072Z,34.63
2018-11-23T12:28:35.736Z,33.20
2018-11-23T12:31:05.416Z,33.30
2018-11-23T12:33:35.043Z,35.27
2018-11-23T12:36:04.960Z,33.97
2018-11-23T12:38:34.635Z,32.53
2018-11-23T12:41:04.415Z,31.20
2018-11-23T12:43:34.075Z,33.50
2018-11-23T12:46:03.730Z,33.30
2018-11-23T12:48:33.599Z,35.77
2018-11-23T12:51:03.319Z,32.07
2018-11-23T12:53:33.118Z,34.90
2018-11-23T12:56:02.744Z,34.77
2018-11-23T12:58:32.450Z,32.63
2018-11-23T13:01:02.101Z,33.77
2018-11-23T13:03:31.794Z,32.70
2018-11-23T13:06:01.459Z,35.53
2018-11-23T13:08:31.206Z,34.43
2018-11-23T13:11:00.849Z,31.67
2018-11-23T13:13:30.506Z,33.60
2018-11-23T13:16:00.100Z,33.50
2018-11-23T13:18:29.720Z,34.13
2018-11-23T13:20:59.440Z,32.60
2018-11-23T13:23:29.238Z,36.67
2018-11-23T13:25:59.031Z,32.37
2018-11-23T13:28:28.669Z,32.60
2018-11-23T13:30:58.410Z,34.77
2018-11-23T13:33:28.271Z,31.97
2018-11-23T13:35:57.943Z,30.53
2018-11-23T13:38:27.511Z,32.67
2018-11-23T13:40:57.239Z,32.53
2018-11-23T13:43:26.983Z,30.77
2018-11-23T13:45:56.725Z,34.40
2018-11-23T13:48:26.375Z,32.60
2018-11-23T13:50:56.079Z,34.47
2018-11-23T13:53:25.771Z,32.67
2018-11-23T13:55:55.743Z,32.63
2018-11-23T13:58:25.481Z,32.97
2018-11-23T14:00:56.015Z,32.40
2018-11-23T14:03:25.624Z,31.50
2018-11-23T14:05:55.424Z,32.47
2018-11-23T14:08:25.155Z,35.17
2018-11-23T14:10:54.877Z,31.23
2018-11-23T14:13:24.556Z,31.13
2018-11-23T14:15:54.203Z,30.90
2018-11-23T14:18:23.855Z,37.10
2018-11-23T14:20:53.817Z,32.53
2018-11-23T14:23:23.503Z,31.57
2018-11-23T14:25:53.353Z,32.27
2018-11-23T14:28:22.962Z,33.57
2018-11-23T14:30:53.141Z,33.00
2018-11-23T14:33:22.749Z,34.53
2018-11-23T14:35:52.439Z,35.80
2018-11-23T14:38:22.066Z,32.90
2018-11-23T14:40:51.792Z,36.57
2018-11-23T14:43:21.521Z,33.80
2018-11-23T14:45:51.160Z,30.17
2018-11-23T14:48:20.768Z,31.90
2018-11-23T14:50:51.703Z,34.93
2018-11-23T14:53:21.399Z,34.13
2018-11-23T14:55:51.008Z,31.80
2018-11-23T14:58:20.645Z,30.90
2018-11-23T15:00:50.650Z,31.90
2018-11-23T15:03:20.254Z,35.53
2018-11-23T15:05:50.314Z,32.90
2018-11-23T15:08:19.982Z,31.77
2018-11-23T15:10:49.679Z,33.43
2018-11-23T15:13:19.418Z,31.77
2018-11-23T15:15:49.077Z,33.27
2018-11-23T15:18:18.979Z,33.43
2018-11-23T15:20:48.830Z,27.90
2018-11-23T15:23:19.676Z,32.07
2018-11-23T15:25:49.367Z,31.63
2018-11-23T15:28:18.990Z,30.90
2018-11-23T15:30:48.642Z,29.70
2018-11-23T15:33:18.806Z,30.83
2018-11-23T15:35:48.427Z,31.70
2018-11-23T15:38:19.802Z,35.30
2018-11-23T15:40:49.443Z,31.53
2018-11-23T15:43:19.998Z,31.13
2018-11-23T15:45:49.645Z,32.60
2018-11-23T15:48:19.320Z,31.30
2018-11-23T15:50:49.052Z,32.90
2018-11-23T15:53:18.673Z,28.20
2018-11-23T15:55:48.491Z,28.73
2018-11-23T15:58:18.558Z,34.27
2018-11-23T16:00:48.946Z,30.70
2018-11-23T16:03:18.529Z,27.13
2018-11-23T16:05:48.338Z,26.97
2018-11-23T16:08:19.369Z,26.07
2018-11-23T16:10:49.483Z,26.23
2018-11-23T16:13:19.096Z,25.40
2018-11-23T16:15:48.956Z,28.20
2018-11-23T16:18:19.180Z,27.33
2018-11-23T16:20:48.792Z,28.43
2018-11-23T16:23:20.766Z,25.17
2018-11-23T16:25:51.099Z,23.97
2018-11-23T16:28:20.715Z,25.17
2018-11-23T16:30:51.014Z,24.30
2018-11-23T16:33:22.904Z,24.03
2018-11-23T16:35:52.665Z,24.80
2018-11-23T16:38:23.463Z,24.40
2018-11-23T16:40:54.574Z,25.03
2018-11-23T16:43:24.223Z,25.03
2018-11-23T16:45:54.129Z,26.77
2018-11-23T16:48:24.084Z,24.07
2018-11-23T16:50:53.878Z,24.30
2018-11-23T16:53:23.715Z,24.40
2018-11-23T16:55:53.466Z,23.40
2018-11-23T16:58:23.195Z,23.00
2018-11-23T17:00:52.847Z,23.47
2018-11-23T17:03:23.105Z,23.93
2018-11-23T17:05:55.226Z,23.27
2018-11-23T17:08:24.855Z,23.17
2018-11-23T17:10:54.664Z,21.73
2018-11-23T17:13:24.340Z,23.17
2018-11-23T17:15:54.182Z,24.90
2018-11-23T17:18:23.750Z,22.63
2018-11-23T17:20:53.591Z,22.33
2018-11-23T17:23:23.303Z,23.07
2018-11-23T17:25:53.714Z,25.10
2018-11-23T17:28:23.314Z,24.63
2018-11-23T17:30:52.996Z,25.03
2018-11-23T17:33:22.793Z,25.40
2018-11-23T17:35:52.564Z,24.67
2018-11-23T17:38:22.299Z,24.53
2018-11-23T17:40:51.905Z,24.30
2018-11-23T17:43:21.579Z,24.47
2018-11-23T17:45:51.320Z,24.13
2018-11-23T17:48:21.990Z,25.30
2018-11-23T17:50:51.931Z,25.40
2018-11-23T17:53:21.627Z,25.27
2018-11-23T17:55:51.779Z,26.03
2018-11-23T17:58:21.432Z,25.07
2018-11-23T18:00:51.100Z,24.67
2018-11-23T18:03:20.753Z,26.50
2018-11-23T18:05:50.455Z,28.07
2018-11-23T18:08:20.125Z,29.90
2018-11-23T18:10:49.748Z,27.07
2018-11-23T18:13:19.399Z,29.73
2018-11-23T18:15:49.048Z,29.77
2018-11-23T18:18:18.739Z,28.67
2018-11-23T18:20:48.497Z,28.67
2018-11-23T18:23:18.183Z,26.23
2018-11-23T18:25:47.793Z,26.70
2018-11-23T18:28:17.476Z,26.63
2018-11-23T18:30:47.232Z,29.20
2018-11-23T18:33:16.953Z,27.27
2018-11-23T18:35:46.785Z,28.07
2018-11-23T18:38:16.546Z,27.50
2018-11-23T18:40:46.435Z,27.30
2018-11-23T18:43:17.058Z,28.40
2018-11-23T18:45:46.719Z,29.50
2018-11-23T18:48:16.826Z,29.63
2018-11-23T18:50:46.581Z,28.07
2018-11-23T18:53:16.210Z,25.83
2018-11-23T18:55:46.173Z,25.93
2018-11-23T18:58:15.918Z,27.90
2018-11-23T19:00:45.632Z,25.60
2018-11-23T19:03:15.227Z,24.43
2018-11-23T19:05:45.037Z,27.40
2018-11-23T19:08:15.597Z,27.47
2018-11-23T19:10:45.731Z,26.60
2018-11-23T19:13:15.483Z,24.20
2018-11-23T19:15:45.467Z,24.30
2018-11-23T19:18:15.174Z,25.40
2018-11-23T19:20:44.844Z,25.03
2018-11-23T19:23:14.615Z,26.90
2018-11-23T19:25:44.244Z,26.03
2018-11-23T19:28:13.921Z,24.13
2018-11-23T19:30:43.527Z,27.07
2018-11-23T19:33:13.152Z,25.33
2018-11-23T19:35:42.851Z,29.03
2018-11-23T19:38:13.058Z,28.43
2018-11-23T19:40:42.692Z,29.07
2018-11-23T19:43:12.319Z,27.40
2018-11-23T19:45:43.046Z,28.63
2018-11-23T19:48:12.606Z,28.37
2018-11-23T19:50:42.299Z,30.50
2018-11-23T19:53:11.950Z,30.57
2018-11-23T19:55:41.566Z,31.37
2018-11-23T19:58:11.271Z,29.70
2018-11-23T20:00:40.912Z,27.63
2018-11-23T20:03:10.623Z,27.40
2018-11-23T20:05:40.388Z,27.40
2018-11-23T20:08:10.275Z,28.07
2018-11-23T20:10:39.883Z,26.73
2018-11-23T20:13:09.594Z,27.73
2018-11-23T20:15:39.332Z,26.67
2018-11-23T20:18:09.020Z,25.87
2018-11-23T20:20:38.814Z,26.70
2018-11-23T20:23:09.362Z,27.27
2018-11-23T20:25:39.143Z,26.07
2018-11-23T20:28:09.000Z,25.33
2018-11-23T20:30:42.491Z,26.40
2018-11-23T20:33:08.500Z,26.00
2018-11-23T20:35:38.097Z,25.50
2018-11-23T20:38:07.729Z,26.33
2018-11-23T20:40:37.494Z,24.57
2018-11-23T20:43:07.230Z,26.63
2018-11-23T20:45:36.987Z,28.97
2018-11-23T20:48:06.676Z,27.70
2018-11-23T20:50:36.446Z,26.10
2018-11-23T20:53:06.229Z,25.83
2018-11-23T20:55:35.842Z,30.80
2018-11-23T20:58:05.845Z,31.30
2018-11-23T21:00:35.595Z,33.43
2018-11-23T21:03:05.401Z,28.43
2018-11-23T21:05:34.980Z,26.30
2018-11-23T21:08:04.568Z,25.17
2018-11-23T21:10:34.306Z,25.53
2018-11-23T21:13:04.450Z,25.17
2018-11-23T21:15:37.193Z,25.13
2018-11-23T21:18:07.710Z,23.97
2018-11-23T21:20:37.472Z,24.73
2018-11-23T21:23:07.238Z,23.27
2018-11-23T21:25:36.899Z,24.67
2018-11-23T21:28:06.614Z,23.70
2018-11-23T21:30:36.395Z,23.13
2018-11-23T21:33:06.029Z,25.97
2018-11-23T21:35:36.640Z,27.17
2018-11-23T21:38:09.494Z,27.37
2018-11-23T21:40:44.461Z,29.60
2018-11-23T21:43:12.095Z,27.53
2018-11-23T21:45:42.478Z,28.47
2018-11-23T21:48:12.630Z,27.27
2018-11-23T21:50:43.105Z,27.80
2018-11-23T21:53:13.680Z,24.67
2018-11-23T21:55:43.768Z,23.53
2018-11-23T21:58:13.415Z,23.53
2018-11-23T22:00:43.479Z,26.67
2018-11-23T22:03:13.292Z,28.03
2018-11-23T22:05:43.126Z,28.13
2018-11-23T22:08:12.989Z,25.93
2018-11-23T22:10:43.357Z,26.37
2018-11-23T22:13:14.175Z,27.70
2018-11-23T22:15:43.874Z,29.37
2018-11-23T22:18:13.644Z,24.23
2018-11-23T22:20:43.486Z,31.97
2018-11-23T22:23:17.600Z,29.17
2018-11-23T22:25:47.495Z,26.27
2018-11-23T22:28:19.790Z,29.30
2018-11-23T22:30:50.003Z,28.13
2018-11-23T22:33:19.693Z,28.47
2018-11-23T22:35:49.311Z,29.13
2018-11-23T22:38:19.098Z,30.33
2018-11-23T22:40:48.914Z,26.43
2018-11-23T22:43:18.665Z,24.60
2018-11-23T22:45:48.520Z,24.47
2018-11-23T22:48:18.340Z,26.60
2018-11-23T22:50:48.069Z,24.73
2018-11-23T22:53:17.845Z,25.50
2018-11-23T22:55:47.559Z,26.23
2018-11-23T22:58:17.252Z,26.87
2018-11-23T23:00:47.200Z,25.40
2018-11-23T23:03:17.089Z,24.97
2018-11-23T23:05:46.795Z,24.80
2018-11-23T23:08:16.570Z,24.40
2018-11-23T23:10:46.298Z,25.97
2018-11-23T23:13:15.928Z,26.17
2018-11-23T23:15:45.749Z,27.03
2018-11-23T23:18:15.453Z,27.40
2018-11-23T23:20:45.152Z,24.97
2018-11-23T23:23:14.814Z,24.17
2018-11-23T23:25:44.585Z,25.27
2018-11-23T23:28:14.361Z,26.77
2018-11-23T23:30:44.114Z,26.13
2018-11-23T23:33:13.758Z,24.50
2018-11-23T23:35:43.651Z,25.03
2018-11-23T23:38:13.361Z,26.27
2018-11-23T23:40:43.066Z,27.60
2018-11-23T23:43:12.714Z,24.53
2018-11-23T23:45:42.778Z,25.50
2018-11-23T23:48:12.555Z,27.10
2018-11-23T23:50:42.169Z,26.07
2018-11-23T23:53:11.864Z,28.93
2018-11-23T23:55:41.502Z,24.37
2018-11-23T23:58:11.472Z,26.20
